Time;durP1;ratioP1;P1;durP2;ratioP2;P2;SDS_P1;SDS_P2;PMS_P1;PMS_P2;Temp;Humidity;BMP_temperature;BMP_pressure;BME280_temperature;BME280_humidity;BME280_pressure;Samples;Min_cycle;Max_cycle;Signal;HPM_P1;HPM_P2
2022/02/17 00:01:51;;;;;;;;;;;;;;;14.25;75.47;99294.00;5121280;27;20177;-78
2022/02/17 00:04:18;;;;;;;;;;;;;;;14.86;75.16;99282.22;5121741;27;19925;-81
2022/02/17 00:06:43;;;;;;;;;;;;;;;14.69;75.39;99293.78;5120513;27;20011;-79
2022/02/17 00:09:09;;;;;;;;;;;;;;;14.48;75.44;99280.22;5120762;27;19965;-79
2022/02/17 00:11:34;;;;;;;;;;;;;;;14.91;74.52;99289.13;5119000;27;19927;-82
2022/02/17 00:13:59;;;;;;;;;;;;;;;14.98;73.85;99284.84;5117374;27;19970;-80
2022/02/17 00:16:24;;;;;;;;;;;;;;;14.56;74.35;99299.44;5117864;27;19985;-81
2022/02/17 00:18:50;;;;;;;;;;;;;;;15.18;72.89;99302.94;5117840;27;19918;-80
2022/02/17 00:21:15;;;;;;;;;;;;;;;15.19;73.50;99326.47;5117576;27;19915;-80
2022/02/17 00:23:40;;;;;;;;;;;;;;;14.56;73.64;99350.28;5117690;27;19955;-81
2022/02/17 00:26:05;;;;;;;;;;;;;;;14.15;76.14;99380.97;5116416;27;19911;-79
2022/02/17 00:28:31;;;;;;;;;;;;;;;14.09;76.66;99348.84;5135581;27;20331;-80
2022/02/17 00:30:56;;;;;;;;;;;;;;;13.86;74.75;99369.00;5134690;27;20014;-79
2022/02/17 00:33:21;;;;;;;;;;;;;;;13.88;75.21;99369.75;5115901;27;19916;-79
2022/02/17 00:35:46;;;;;;;;;;;;;;;13.86;74.75;99331.81;5115958;27;19962;-80
2022/02/17 00:38:11;;;;;;;;;;;;;;;13.69;72.18;99335.94;5115960;27;19959;-80
2022/02/17 00:40:37;;;;;;;;;;;;;;;13.93;71.03;99345.72;5116116;27;20362;-80
2022/02/17 00:43:02;;;;;;;;;;;;;;;13.89;70.95;99341.53;5116168;27;19920;-79
2022/02/17 00:45:27;;;;;;;;;;;;;;;13.22;73.69;99363.34;5116058;27;19920;-81
2022/02/17 00:47:52;;;;;;;;;;;;;;;13.10;74.43;99348.97;5134676;27;19916;-80
2022/02/17 00:50:18;;;;;;;;;;;;;;;13.25;74.15;99333.22;5115917;27;19916;-80
2022/02/17 00:52:43;;;;;;;;;;;;;;;13.47;73.86;99343.22;5116298;28;19916;-80
2022/02/17 00:55:08;;;;;;;;;;;;;;;13.45;73.31;99347.91;5117163;27;19942;-79
2022/02/17 00:57:34;;;;;;;;;;;;;;;13.68;72.30;99355.97;5118033;27;20288;-79
2022/02/17 00:59:59;;;;;;;;;;;;;;;13.40;71.95;99373.72;5117823;27;19915;-79
2022/02/17 01:02:24;;;;;;;;;;;;;;;13.73;73.06;99369.19;5117358;27;19922;-79
2022/02/17 01:04:49;;;;;;;;;;;;;;;14.10;73.23;99377.78;5117479;28;19919;-80
2022/02/17 01:07:15;;;;;;;;;;;;;;;13.62;74.24;99372.81;5117772;28;19916;-80
2022/02/17 01:09:40;;;;;;;;;;;;;;;13.69;71.98;99397.59;5116841;28;19995;-80
2022/02/17 01:12:06;;;;;;;;;;;;;;;13.87;72.92;99400.63;5117101;28;19926;-80
2022/02/17 01:14:31;;;;;;;;;;;;;;;13.91;71.94;99393.94;5116479;28;19921;-81
2022/02/17 01:16:56;;;;;;;;;;;;;;;13.49;72.19;99410.16;5116489;28;19959;-80
2022/02/17 01:19:21;;;;;;;;;;;;;;;14.00;71.11;99398.59;5115667;28;20393;-80
2022/02/17 01:21:47;;;;;;;;;;;;;;;13.45;71.78;99407.69;5134212;28;19919;-80
2022/02/17 01:24:12;;;;;;;;;;;;;;;13.74;70.55;99417.97;5134479;28;19915;-80
2022/02/17 01:26:37;;;;;;;;;;;;;;;14.36;69.10;99429.94;5134339;28;19922;-80
2022/02/17 01:29:03;;;;;;;;;;;;;;;13.76;70.24;99431.44;5115757;28;20469;-80
2022/02/17 01:31:28;;;;;;;;;;;;;;;13.96;69.98;99425.16;5116179;28;19923;-79
2022/02/17 01:33:54;;;;;;;;;;;;;;;13.78;70.25;99433.03;5115698;28;19923;-77
2022/02/17 01:36:19;;;;;;;;;;;;;;;13.99;70.09;99460.28;5115687;28;19922;-80
2022/02/17 01:38:44;;;;;;;;;;;;;;;13.74;69.74;99452.44;5115899;28;19968;-80
2022/02/17 01:41:10;;;;;;;;;;;;;;;14.08;69.21;99446.88;5115546;28;20273;-80
2022/02/17 01:43:36;;;;;;;;;;;;;;;14.39;68.41;99452.41;5115819;28;19946;-81
2022/02/17 01:46:01;;;;;;;;;;;;;;;13.99;68.50;99451.25;5115763;28;19915;-80
2022/02/17 01:48:26;;;;;;;;;;;;;;;13.81;67.80;99459.97;5115828;28;19925;-80
2022/02/17 01:50:52;;;;;;;;;;;;;;;13.57;67.15;99449.28;5115892;28;19984;-79
2022/02/17 01:53:17;;;;;;;;;;;;;;;14.08;65.51;99461.34;5115769;28;19927;-80
2022/02/17 01:55:47;;;;;;;;;;;;;;;13.40;65.63;99472.38;5116205;28;20380;-80
2022/02/17 01:58:13;;;;;;;;;;;;;;;13.62;64.27;99438.88;5116501;28;19916;-80
2022/02/17 02:00:38;;;;;;;;;;;;;;;13.61;64.32;99468.91;5116209;28;19915;-80
2022/02/17 02:03:04;;;;;;;;;;;;;;;13.46;64.06;99462.88;5116174;28;19937;-80
2022/02/17 02:05:29;;;;;;;;;;;;;;;13.53;63.49;99468.69;5116109;28;19963;-80
2022/02/17 02:07:54;;;;;;;;;;;;;;;13.52;63.59;99485.97;5115836;28;19915;-80
2022/02/17 02:10:20;;;;;;;;;;;;;;;13.09;64.50;99498.41;5115977;28;20003;-80
2022/02/17 02:12:45;;;;;;;;;;;;;;;14.07;62.90;99504.97;5116159;27;19920;-81
2022/02/17 02:15:11;;;;;;;;;;;;;;;13.78;64.26;99513.69;5138158;27;19923;-80
2022/02/17 02:17:38;;;;;;;;;;;;;;;13.25;65.84;99507.03;5120138;27;20349;-81
2022/02/17 02:20:04;;;;;;;;;;;;;;;13.63;65.98;99507.66;5119900;27;19915;-80
2022/02/17 02:22:30;;;;;;;;;;;;;;;13.29;66.50;99524.81;5138338;27;20026;-80
2022/02/17 02:24:58;;;;;;;;;;;;;;;13.33;66.46;99538.16;5119464;27;19968;-81
2022/02/17 02:27:24;;;;;;;;;;;;;;;13.12;65.80;99523.47;5119515;27;19923;-80
2022/02/17 02:29:49;;;;;;;;;;;;;;;13.05;65.20;99538.50;5119758;27;19915;-80
2022/02/17 02:32:14;;;;;;;;;;;;;;;12.92;64.38;99540.44;5137889;27;20280;-82
2022/02/17 02:34:39;;;;;;;;;;;;;;;13.03;63.58;99570.34;5138200;27;19962;-81
2022/02/17 02:37:05;;;;;;;;;;;;;;;13.11;62.31;99564.31;5138003;27;20383;-80
2022/02/17 02:39:31;;;;;;;;;;;;;;;13.02;61.12;99587.63;5120346;27;19919;-80
2022/02/17 02:41:56;;;;;;;;;;;;;;;12.79;60.84;99608.41;5138776;27;20395;-81
2022/02/17 02:44:21;;;;;;;;;;;;;;;13.01;60.19;99618.47;5137942;27;19916;-80
2022/02/17 02:46:47;;;;;;;;;;;;;;;13.23;60.21;99595.94;5138087;27;19933;-81
2022/02/17 02:49:12;;;;;;;;;;;;;;;12.63;60.56;99627.69;5137798;27;19976;-82
2022/02/17 02:51:37;;;;;;;;;;;;;;;13.05;59.85;99643.53;5119369;27;19916;-80
2022/02/17 02:54:03;;;;;;;;;;;;;;;12.60;60.07;99646.94;5137412;27;20361;-81
2022/02/17 02:56:28;;;;;;;;;;;;;;;13.00;59.76;99651.16;5119677;27;19915;-81
2022/02/17 02:58:54;;;;;;;;;;;;;;;13.12;59.23;99653.81;5138070;27;19922;-81
2022/02/17 03:01:19;;;;;;;;;;;;;;;13.15;58.89;99659.97;5119211;27;19915;-81
2022/02/17 03:03:48;;;;;;;;;;;;;;;12.84;59.47;99643.34;5119631;27;19923;-81
2022/02/17 03:06:13;;;;;;;;;;;;;;;12.82;59.07;99654.31;5102761;27;20389;-81
2022/02/17 03:08:39;;;;;;;;;;;;;;;12.79;59.09;99678.97;5119107;27;20018;-81
2022/02/17 03:11:04;;;;;;;;;;;;;;;13.07;58.08;99671.44;5119503;27;19927;-79
2022/02/17 03:13:29;;;;;;;;;;;;;;;13.15;56.58;99679.88;5137550;27;20468;-80
2022/02/17 03:15:54;;;;;;;;;;;;;;;12.51;57.17;99691.03;5137136;27;20364;-81
2022/02/17 03:18:19;;;;;;;;;;;;;;;12.86;56.29;99706.50;5136747;27;20296;-80
2022/02/17 03:20:45;;;;;;;;;;;;;;;12.81;56.92;99687.00;5118636;27;19911;-80
2022/02/17 03:23:10;;;;;;;;;;;;;;;12.96;56.57;99685.84;5137235;27;20373;-79
2022/02/17 03:25:35;;;;;;;;;;;;;;;13.18;56.47;99695.91;5118465;27;19968;-80
2022/02/17 03:28:00;;;;;;;;;;;;;;;12.87;57.82;99730.81;5118583;27;19912;-79
2022/02/17 03:30:25;;;;;;;;;;;;;;;13.32;56.15;99697.56;5118734;27;20461;-80
2022/02/17 03:32:51;;;;;;;;;;;;;;;13.06;56.05;99716.72;5118797;27;19911;-81
2022/02/17 03:35:17;;;;;;;;;;;;;;;13.35;55.74;99716.38;5137273;27;20390;-80
2022/02/17 03:37:43;;;;;;;;;;;;;;;13.14;56.40;99718.00;5137709;27;19968;-81
2022/02/17 03:40:08;;;;;;;;;;;;;;;13.28;56.62;99717.78;5118214;27;19920;-79
2022/02/17 03:42:33;;;;;;;;;;;;;;;13.04;56.37;99724.09;5117868;27;19927;-81
2022/02/17 03:44:59;;;;;;;;;;;;;;;13.17;56.46;99743.06;5117592;27;19915;-81
2022/02/17 03:47:24;;;;;;;;;;;;;;;13.02;57.63;99734.22;5116939;27;19915;-80
2022/02/17 03:49:49;;;;;;;;;;;;;;;13.14;58.18;99754.16;5135364;27;19923;-82
2022/02/17 03:52:14;;;;;;;;;;;;;;;13.26;57.02;99746.94;5135646;27;19915;-80
2022/02/17 03:54:39;;;;;;;;;;;;;;;13.15;58.32;99755.00;5136643;27;20278;-81
2022/02/17 03:57:05;;;;;;;;;;;;;;;13.13;58.57;99766.00;5137088;27;20338;-80
2022/02/17 03:59:30;;;;;;;;;;;;;;;13.40;57.51;99770.34;5118744;27;19916;-79
2022/02/17 04:01:55;;;;;;;;;;;;;;;12.81;58.79;99774.72;5117940;27;19916;-80
2022/02/17 04:04:20;;;;;;;;;;;;;;;12.58;58.75;99795.41;5117784;27;19938;-80
2022/02/17 04:06:46;;;;;;;;;;;;;;;12.99;58.52;99769.75;5136628;27;19919;-81
2022/02/17 04:09:11;;;;;;;;;;;;;;;12.87;58.28;99790.53;5117165;27;19919;-80
2022/02/17 04:11:36;;;;;;;;;;;;;;;12.90;58.43;99789.44;5135372;27;19919;-81
2022/02/17 04:14:02;;;;;;;;;;;;;;;12.80;58.17;99799.25;5135508;27;19922;-81
2022/02/17 04:16:29;;;;;;;;;;;;;;;12.65;58.26;99784.97;5117082;27;19919;-82
2022/02/17 04:18:55;;;;;;;;;;;;;;;13.26;56.92;99806.69;5116802;27;19916;-79
2022/02/17 04:21:22;;;;;;;;;;;;;;;12.78;56.94;99815.66;5135270;27;19922;-80
2022/02/17 04:23:47;;;;;;;;;;;;;;;12.94;57.04;99828.97;5117144;27;19927;-80
2022/02/17 04:26:13;;;;;;;;;;;;;;;12.82;57.00;99846.13;5135512;27;19915;-81
2022/02/17 04:28:39;;;;;;;;;;;;;;;13.00;57.19;99850.22;5135367;27;19916;-81
2022/02/17 04:31:06;;;;;;;;;;;;;;;12.93;57.16;99862.53;5135433;27;20383;-81
2022/02/17 04:33:31;;;;;;;;;;;;;;;13.03;57.98;99866.28;5135180;27;19915;-81
2022/02/17 04:35:57;;;;;;;;;;;;;;;12.72;57.23;99875.81;5134336;27;19927;-81
2022/02/17 04:38:22;;;;;;;;;;;;;;;12.68;57.70;99869.75;5135177;27;19916;-81
2022/02/17 04:43:31;;;;;;;;;;;;;;;12.68;59.08;99866.13;5135376;27;20281;-81
2022/02/17 04:45:56;;;;;;;;;;;;;;;12.98;59.25;99878.47;5116448;27;19919;-82
2022/02/17 04:48:21;;;;;;;;;;;;;;;13.05;59.32;99894.19;5134807;27;19916;-81
2022/02/17 04:50:47;;;;;;;;;;;;;;;13.50;57.87;99887.31;5134846;27;19919;-82
2022/02/17 04:53:12;;;;;;;;;;;;;;;13.12;58.17;99897.34;5116585;28;19919;-82
2022/02/17 04:55:39;;;;;;;;;;;;;;;13.11;57.86;99896.47;5115881;27;20396;-81
2022/02/17 04:58:04;;;;;;;;;;;;;;;13.01;57.87;99895.38;5134439;27;20017;-79
2022/02/17 05:00:29;;;;;;;;;;;;;;;13.03;58.75;99895.28;5115902;27;19957;-82
2022/02/17 05:02:54;;;;;;;;;;;;;;;13.46;56.26;99882.13;5115637;27;19915;-81
2022/02/17 05:05:20;;;;;;;;;;;;;;;13.38;57.08;99909.00;5115753;27;19911;-82
2022/02/17 05:07:45;;;;;;;;;;;;;;;12.98;56.61;99921.91;5134004;27;19915;-82
2022/02/17 05:10:10;;;;;;;;;;;;;;;12.89;56.19;99937.00;5115704;28;19923;-80
2022/02/17 05:12:36;;;;;;;;;;;;;;;13.06;55.43;99931.25;5134074;28;19915;-81
2022/02/17 05:15:01;;;;;;;;;;;;;;;13.28;54.37;99954.09;5133851;28;19951;-82
2022/02/17 05:17:26;;;;;;;;;;;;;;;13.60;53.58;99967.19;5133908;28;19930;-82
2022/02/17 05:19:52;;;;;;;;;;;;;;;13.18;54.69;99977.47;5115550;28;19960;-82
2022/02/17 05:22:17;;;;;;;;;;;;;;;13.34;55.14;99983.56;5115599;28;19919;-82
2022/02/17 05:24:42;;;;;;;;;;;;;;;13.43;54.05;99988.31;5115504;28;19951;-81
2022/02/17 05:27:07;;;;;;;;;;;;;;;12.87;54.31;100007.69;5134140;28;19920;-80
2022/02/17 05:29:33;;;;;;;;;;;;;;;13.43;53.03;99987.47;5115623;28;20357;-81
2022/02/17 05:31:58;;;;;;;;;;;;;;;13.00;52.77;99990.53;5115463;28;19920;-80
2022/02/17 05:34:23;;;;;;;;;;;;;;;13.04;51.67;99997.50;5115601;28;19961;-80
2022/02/17 05:36:48;;;;;;;;;;;;;;;13.05;51.61;99994.66;5134139;28;19916;-80
2022/02/17 05:39:13;;;;;;;;;;;;;;;13.30;51.52;100009.22;5134736;28;19919;-80
2022/02/17 05:41:39;;;;;;;;;;;;;;;13.32;52.52;100019.97;5134962;28;20343;-80
2022/02/17 05:44:05;;;;;;;;;;;;;;;13.19;54.67;100034.41;5116350;28;19922;-81
2022/02/17 05:46:30;;;;;;;;;;;;;;;13.14;54.55;100041.16;5116891;28;19923;-79
2022/02/17 05:48:55;;;;;;;;;;;;;;;12.95;55.45;100042.44;5139958;27;20432;-81
2022/02/17 05:51:20;;;;;;;;;;;;;;;12.69;55.87;100037.00;5139872;27;19915;-81
2022/02/17 05:53:46;;;;;;;;;;;;;;;12.69;55.47;100041.56;5120743;27;20384;-80
2022/02/17 05:56:11;;;;;;;;;;;;;;;12.84;55.09;100056.78;5139220;27;19920;-81
2022/02/17 05:58:37;;;;;;;;;;;;;;;12.93;54.76;100055.28;5140025;27;19920;-81
2022/02/17 06:01:02;;;;;;;;;;;;;;;12.75;55.21;100060.13;5140240;27;19951;-82
2022/02/17 06:03:27;;;;;;;;;;;;;;;13.10;54.39;100073.97;5140118;27;19923;-82
2022/02/17 06:05:52;;;;;;;;;;;;;;;12.46;54.38;100079.28;5121932;27;20019;-80
2022/02/17 06:08:18;;;;;;;;;;;;;;;12.46;54.37;100076.56;5122719;27;19921;-82
2022/02/17 06:10:44;;;;;;;;;;;;;;;12.72;53.71;100082.91;5123486;27;19916;-81
2022/02/17 06:13:09;;;;;;;;;;;;;;;12.68;54.44;100075.09;5142201;27;20277;-82
2022/02/17 06:15:36;;;;;;;;;;;;;;;12.67;53.68;100078.81;5123040;27;19915;-81
2022/02/17 06:18:01;;;;;;;;;;;;;;;12.77;53.27;100096.16;5123644;27;19923;-82
2022/02/17 06:20:26;;;;;;;;;;;;;;;12.82;53.90;100098.56;5141531;27;19915;-83
2022/02/17 06:22:51;;;;;;;;;;;;;;;12.73;52.87;100089.25;5122382;27;19958;-82
2022/02/17 06:25:19;;;;;;;;;;;;;;;12.56;54.13;100117.50;5139755;27;19920;-81
2022/02/17 06:27:44;;;;;;;;;;;;;;;12.42;53.66;100129.28;5121289;27;19919;-83
2022/02/17 06:30:09;;;;;;;;;;;;;;;12.96;52.16;100125.66;5118585;27;19915;-82
2022/02/17 06:32:34;;;;;;;;;;;;;;;12.33;53.81;100136.19;5137091;27;20014;-82
2022/02/17 06:35:00;;;;;;;;;;;;;;;12.55;53.36;100151.91;5137185;27;19967;-84
2022/02/17 06:37:25;;;;;;;;;;;;;;;12.58;53.96;100140.00;5120953;27;19915;-83
2022/02/17 06:39:50;;;;;;;;;;;;;;;13.03;52.61;100161.38;5138218;27;19923;-86
2022/02/17 06:42:16;;;;;;;;;;;;;;;12.91;52.47;100168.53;5119155;27;19931;-84
2022/02/17 06:44:41;;;;;;;;;;;;;;;12.22;53.31;100163.16;5141279;27;19916;-85
2022/02/17 06:47:06;;;;;;;;;;;;;;;12.19;52.43;100179.63;5127728;27;20561;-80
2022/02/17 06:49:32;;;;;;;;;;;;;;;12.54;52.00;100185.44;5134749;27;19922;-83
2022/02/17 06:51:58;;;;;;;;;;;;;;;12.30;52.29;100189.78;5131516;27;19919;-84
2022/02/17 06:54:23;;;;;;;;;;;;;;;12.39;52.67;100202.72;5151672;27;19964;-84
2022/02/17 06:56:48;;;;;;;;;;;;;;;11.88;52.99;100205.97;5137379;27;19916;-84
2022/02/17 06:59:14;;;;;;;;;;;;;;;12.12;52.38;100210.81;5116373;27;19912;-84
2022/02/17 07:01:39;;;;;;;;;;;;;;;12.49;52.02;100228.28;5118505;27;19915;-84
2022/02/17 07:04:04;;;;;;;;;;;;;;;12.53;51.58;100207.25;5118456;27;19915;-88
2022/02/17 07:06:29;;;;;;;;;;;;;;;12.63;51.14;100221.09;5118205;27;20353;-83
2022/02/17 07:08:54;;;;;;;;;;;;;;;12.04;51.35;100238.44;5117489;27;19916;-83
2022/02/17 07:11:20;;;;;;;;;;;;;;;12.41;50.62;100242.38;5133719;27;20369;-81
2022/02/17 07:13:46;;;;;;;;;;;;;;;12.16;50.36;100262.03;5113960;27;20419;-83
2022/02/17 07:16:11;;;;;;;;;;;;;;;12.08;50.59;100268.91;5115744;27;19915;-82
2022/02/17 07:18:37;;;;;;;;;;;;;;;12.25;49.71;100266.00;5115963;27;19926;-82
2022/02/17 07:21:05;;;;;;;;;;;;;;;12.19;49.98;100256.44;5115489;27;19916;-83
2022/02/17 07:23:30;;;;;;;;;;;;;;;12.02;50.68;100271.06;5133678;27;19969;-82
2022/02/17 07:25:56;;;;;;;;;;;;;;;12.45;50.77;100283.72;5115497;27;19954;-83
2022/02/17 07:28:22;;;;;;;;;;;;;;;12.39;51.38;100295.84;5115851;27;19923;-83
2022/02/17 07:30:47;;;;;;;;;;;;;;;12.08;51.59;100287.91;5115784;27;20386;-83
2022/02/17 07:33:13;;;;;;;;;;;;;;;12.31;51.43;100297.31;5115809;27;20002;-83
2022/02/17 07:35:38;;;;;;;;;;;;;;;11.81;52.08;100299.47;5116605;27;20373;-83
2022/02/17 07:38:03;;;;;;;;;;;;;;;12.02;51.75;100314.44;5116639;27;19938;-81
2022/02/17 07:40:28;;;;;;;;;;;;;;;12.34;51.38;100308.81;5116843;27;19919;-82
2022/02/17 07:42:55;;;;;;;;;;;;;;;12.16;50.79;100310.00;5116754;27;19919;-83
2022/02/17 07:45:20;;;;;;;;;;;;;;;12.35;50.61;100316.00;5135190;27;19915;-83
2022/02/17 07:47:46;;;;;;;;;;;;;;;11.96;50.39;100298.56;5116739;27;19960;-82
2022/02/17 07:50:12;;;;;;;;;;;;;;;12.03;49.63;100315.28;5134817;27;20377;-81
2022/02/17 07:52:37;;;;;;;;;;;;;;;12.37;49.14;100319.47;5116901;27;19919;-84
2022/02/17 07:55:03;;;;;;;;;;;;;;;12.24;49.90;100332.06;5116482;27;20410;-84
2022/02/17 07:57:28;;;;;;;;;;;;;;;12.15;51.08;100324.50;5116565;27;20330;-83
2022/02/17 07:59:53;;;;;;;;;;;;;;;12.50;50.58;100345.81;5134879;27;20395;-83
2022/02/17 08:02:18;;;;;;;;;;;;;;;12.73;49.55;100347.94;5116725;27;19960;-83
2022/02/17 08:04:45;;;;;;;;;;;;;;;12.19;50.38;100355.91;5116872;27;19981;-84
2022/02/17 08:07:10;;;;;;;;;;;;;;;11.96;50.52;100387.16;5135201;27;19916;-83
2022/02/17 08:09:36;;;;;;;;;;;;;;;12.50;49.77;100378.38;5116822;27;20388;-84
2022/02/17 08:12:02;;;;;;;;;;;;;;;12.38;48.91;100388.19;5115744;27;19920;-83
2022/02/17 08:14:27;;;;;;;;;;;;;;;12.53;47.78;100378.19;5135145;27;19930;-83
2022/02/17 08:16:52;;;;;;;;;;;;;;;12.23;47.56;100393.59;5134990;27;19947;-83
2022/02/17 08:19:17;;;;;;;;;;;;;;;12.17;47.42;100388.53;5135008;27;20080;-85
2022/02/17 08:21:43;;;;;;;;;;;;;;;12.08;47.65;100385.50;5116673;27;19911;-85
2022/02/17 08:24:08;;;;;;;;;;;;;;;12.49;46.72;100412.78;5117118;27;19915;-85
2022/02/17 08:26:34;;;;;;;;;;;;;;;12.59;46.99;100413.97;5116818;27;20280;-84
2022/02/17 08:28:59;;;;;;;;;;;;;;;12.08;46.53;100399.97;5116389;27;20417;-82
2022/02/17 08:31:28;;;;;;;;;;;;;;;12.71;45.25;100412.31;5116006;27;19915;-84
2022/02/17 08:33:54;;;;;;;;;;;;;;;12.40;46.13;100432.34;5134394;27;19912;-82
2022/02/17 08:36:19;;;;;;;;;;;;;;;12.26;45.36;100437.75;5134351;27;19923;-83
2022/02/17 08:38:45;;;;;;;;;;;;;;;11.93;45.97;100438.84;5115978;27;20392;-82
2022/02/17 08:41:10;;;;;;;;;;;;;;;12.54;45.43;100437.78;5134792;27;20392;-82
2022/02/17 08:43:35;;;;;;;;;;;;;;;13.09;44.95;100448.84;5116329;27;20268;-84
2022/02/17 08:46:01;;;;;;;;;;;;;;;12.73;45.32;100444.78;5116265;28;20008;-82
2022/02/17 08:48:26;;;;;;;;;;;;;;;13.25;44.86;100451.41;5116248;27;19923;-83
2022/02/17 08:50:52;;;;;;;;;;;;;;;13.37;45.37;100466.94;5134102;27;19915;-83
2022/02/17 08:53:17;;;;;;;;;;;;;;;12.85;45.69;100454.00;5133747;27;19926;-83
2022/02/17 08:55:42;;;;;;;;;;;;;;;13.70;44.74;100473.84;5133964;27;20388;-83
2022/02/17 08:58:08;;;;;;;;;;;;;;;13.26;45.88;100467.63;5115703;27;19915;-83
2022/02/17 09:00:33;;;;;;;;;;;;;;;13.44;46.08;100487.31;5115340;27;19922;-82
2022/02/17 09:02:59;;;;;;;;;;;;;;;13.85;45.28;100479.25;5133990;27;19919;-83
2022/02/17 09:05:24;;;;;;;;;;;;;;;13.29;45.80;100469.28;5119011;27;20434;-81
2022/02/17 09:07:50;;;;;;;;;;;;;;;13.89;45.46;100473.50;5123527;27;19923;-82
2022/02/17 09:10:16;;;;;;;;;;;;;;;13.35;45.99;100489.78;5125323;27;19919;-80
2022/02/17 09:12:41;;;;;;;;;;;;;;;13.27;47.09;100498.34;5124001;27;19951;-80
2022/02/17 09:15:07;;;;;;;;;;;;;;;13.46;46.52;100514.38;5124184;27;19923;-81
2022/02/17 09:17:33;;;;;;;;;;;;;;;13.85;46.21;100520.03;5144053;27;19915;-81
2022/02/17 09:19:58;;;;;;;;;;;;;;;13.42;46.95;100505.56;5123313;27;19919;-85
2022/02/17 09:22:23;;;;;;;;;;;;;;;14.08;46.13;100516.63;5127635;27;19923;-84
2022/02/17 09:24:49;;;;;;;;;;;;;;;13.69;45.81;100531.91;5128660;27;19969;-82
2022/02/17 09:27:14;;;;;;;;;;;;;;;14.04;45.70;100520.53;5129724;27;19916;-84
2022/02/17 09:29:41;;;;;;;;;;;;;;;14.47;43.86;100528.47;5130262;27;19927;-85
2022/02/17 09:32:06;;;;;;;;;;;;;;;13.77;44.58;100540.44;5146385;27;19916;-86
2022/02/17 09:34:31;;;;;;;;;;;;;;;14.24;43.90;100542.81;5131213;27;19941;-84
2022/02/17 09:36:57;;;;;;;;;;;;;;;13.71;43.59;100542.66;5148237;27;19919;-83
2022/02/17 09:39:22;;;;;;;;;;;;;;;13.63;43.91;100556.75;5135287;27;19972;-85
2022/02/17 09:41:48;;;;;;;;;;;;;;;14.36;42.81;100552.84;5148325;27;20015;-83
2022/02/17 09:44:13;;;;;;;;;;;;;;;13.82;43.41;100579.06;5131203;27;19915;-86
2022/02/17 09:46:41;;;;;;;;;;;;;;;14.00;42.85;100555.22;5148542;27;19919;-84
2022/02/17 09:49:06;;;;;;;;;;;;;;;13.77;43.70;100561.31;5145078;27;19915;-86
2022/02/17 09:51:33;;;;;;;;;;;;;;;13.51;44.25;100573.88;5130788;27;19938;-85
2022/02/17 09:53:59;;;;;;;;;;;;;;;13.72;44.11;100577.03;5130487;27;19928;-83
2022/02/17 09:56:25;;;;;;;;;;;;;;;14.23;43.39;100574.56;5126835;27;19919;-85
2022/02/17 09:58:50;;;;;;;;;;;;;;;13.62;43.59;100582.22;5127237;27;19926;-84
2022/02/17 10:01:17;;;;;;;;;;;;;;;13.69;43.40;100599.84;5148081;27;19923;-83
2022/02/17 10:03:42;;;;;;;;;;;;;;;13.46;44.53;100585.03;5128952;27;20292;-82
2022/02/17 10:06:09;;;;;;;;;;;;;;;13.69;43.75;100597.13;5149205;27;19919;-83
2022/02/17 10:08:34;;;;;;;;;;;;;;;14.09;43.60;100610.84;5128953;27;19915;-85
2022/02/17 10:11:00;;;;;;;;;;;;;;;14.22;44.02;100600.06;5129623;27;19930;-85
2022/02/17 10:13:25;;;;;;;;;;;;;;;13.91;44.63;100612.94;5127007;27;20009;-84
2022/02/17 10:15:51;;;;;;;;;;;;;;;14.00;43.88;100622.34;5132679;27;19923;-84
2022/02/17 10:18:18;;;;;;;;;;;;;;;14.50;43.66;100631.69;5129464;27;20361;-83
2022/02/17 10:21:12;;;;;;;;;;;;;;;14.28;43.40;100623.22;5145297;27;20421;-83
2022/02/17 10:23:44;;;;;;;;;;;;;;;14.51;42.97;100617.13;5129171;27;20287;-82
2022/02/17 10:26:15;;;;;;;;;;;;;;;14.49;43.15;100624.53;5122420;27;20408;-84
2022/02/17 10:28:42;;;;;;;;;;;;;;;14.41;43.45;100632.31;5126355;27;19911;-84
2022/02/17 10:31:08;;;;;;;;;;;;;;;14.20;43.81;100647.38;5129309;27;19915;-83
2022/02/17 10:33:37;;;;;;;;;;;;;;;14.90;42.21;100644.50;5144392;27;19960;-82
2022/02/17 10:36:03;;;;;;;;;;;;;;;14.31;43.58;100636.63;5131764;27;19960;-81
2022/02/17 10:38:28;;;;;;;;;;;;;;;14.49;42.98;100656.31;5151664;27;20340;-83
2022/02/17 10:40:54;;;;;;;;;;;;;;;14.65;43.89;100667.06;5132780;27;19969;-82
2022/02/17 10:43:20;;;;;;;;;;;;;;;14.64;42.77;100665.31;5131976;27;19923;-86
2022/02/17 10:45:48;;;;;;;;;;;;;;;14.52;43.61;100659.72;5129081;27;19915;-83
2022/02/17 10:48:18;;;;;;;;;;;;;;;14.92;43.11;100675.22;5148210;27;20048;-84
2022/02/17 10:50:46;;;;;;;;;;;;;;;14.22;43.98;100675.34;5121889;27;20006;-85
2022/02/17 10:53:32;;;;;;;;;;;;;;;14.28;44.73;100658.59;5127035;27;19934;-86
2022/02/17 10:55:59;;;;;;;;;;;;;;;14.81;44.76;100681.41;5145941;27;19916;-85
2022/02/17 10:58:27;;;;;;;;;;;;;;;14.65;44.65;100673.38;5147226;27;19915;-83
2022/02/17 11:00:53;;;;;;;;;;;;;;;14.29;44.19;100685.72;5126497;27;20368;-84
2022/02/17 11:03:18;;;;;;;;;;;;;;;14.31;44.39;100681.06;5128909;27;19927;-84
2022/02/17 11:05:44;;;;;;;;;;;;;;;14.31;45.12;100686.50;5127998;27;19915;-85
2022/02/17 11:08:10;;;;;;;;;;;;;;;14.39;44.68;100693.25;5127054;27;19944;-83
2022/02/17 11:10:36;;;;;;;;;;;;;;;14.67;44.27;100704.13;5129726;27;20427;-84
2022/02/17 11:13:02;;;;;;;;;;;;;;;14.57;44.80;100708.41;5157907;27;19925;-84
2022/02/17 11:15:27;;;;;;;;;;;;;;;14.16;45.17;100711.97;5139184;27;20029;-84
2022/02/17 11:17:52;;;;;;;;;;;;;;;14.46;43.71;100711.84;5139282;27;19915;-82
2022/02/17 11:20:17;;;;;;;;;;;;;;;14.87;43.95;100710.03;5139177;27;20342;-84
2022/02/17 11:22:47;;;;;;;;;;;;;;;14.94;43.90;100715.97;5157694;27;19915;-81
2022/02/17 11:25:13;;;;;;;;;;;;;;;15.03;43.90;100718.06;5157466;27;19916;-84
2022/02/17 11:27:57;;;;;;;;;;;;;;;14.83;43.96;100728.47;5157716;27;19966;-84
2022/02/17 11:30:22;;;;;;;;;;;;;;;14.55;44.74;100721.22;5157804;27;19951;-84
2022/02/17 11:33:07;;;;;;;;;;;;;;;15.38;43.47;100703.84;5139260;27;19922;-84
2022/02/17 11:35:32;;;;;;;;;;;;;;;15.03;43.57;100728.94;5158332;27;19915;-84
2022/02/17 11:37:58;;;;;;;;;;;;;;;15.01;43.94;100733.66;5139579;27;19919;-84
2022/02/17 11:40:23;;;;;;;;;;;;;;;14.46;45.00;100711.84;5158411;27;19923;-85
2022/02/17 11:43:02;;;;;;;;;;;;;;;14.57;44.72;100735.63;5139239;27;19923;-84
2022/02/17 11:45:27;;;;;;;;;;;;;;;14.81;45.04;100752.22;5157101;27;20519;-86
2022/02/17 11:47:55;;;;;;;;;;;;;;;14.87;44.59;100754.53;5157536;27;19927;-83
2022/02/17 11:50:30;;;;;;;;;;;;;;;14.99;44.28;100774.63;5157154;27;19915;-84
2022/02/17 11:53:14;;;;;;;;;;;;;;;14.77;44.75;100769.72;5157277;27;19915;-86
2022/02/17 11:55:39;;;;;;;;;;;;;;;14.46;44.37;100740.88;5157658;27;19963;-83
2022/02/17 11:58:25;;;;;;;;;;;;;;;15.46;43.02;100745.09;5138568;27;19941;-85
2022/02/17 12:00:50;;;;;;;;;;;;;;;14.75;44.78;100771.69;5156887;27;19915;-84
2022/02/17 12:03:35;;;;;;;;;;;;;;;15.12;43.94;100751.97;5138421;27;19915;-86
2022/02/17 12:06:20;;;;;;;;;;;;;;;14.76;44.04;100757.06;5138370;27;19915;-86
2022/02/17 12:08:53;;;;;;;;;;;;;;;14.89;43.92;100746.25;5157217;27;19948;-85
2022/02/17 12:11:26;;;;;;;;;;;;;;;14.70;43.64;100754.75;5156990;27;19923;-83
2022/02/17 12:13:51;;;;;;;;;;;;;;;14.75;43.96;100746.28;5156774;27;19915;-85
2022/02/17 12:16:37;;;;;;;;;;;;;;;15.75;42.72;100742.16;5157062;27;20253;-84
2022/02/17 12:19:08;;;;;;;;;;;;;;;15.47;42.64;100741.34;5118322;27;20010;-85
2022/02/17 12:21:35;;;;;;;;;;;;;;;14.51;44.23;100725.16;5117517;27;19915;-83
2022/02/17 12:24:01;;;;;;;;;;;;;;;14.56;45.37;100743.91;5118062;27;20011;-85
2022/02/17 12:26:39;;;;;;;;;;;;;;;14.71;45.09;100734.72;5117657;27;19955;-84
2022/02/17 12:29:18;;;;;;;;;;;;;;;14.79;45.80;100734.22;5117980;27;19998;-84
2022/02/17 12:31:43;;;;;;;;;;;;;;;14.61;43.53;100744.47;5138491;27;19921;-82
2022/02/17 12:34:08;;;;;;;;;;;;;;;15.30;43.51;100755.28;5121226;27;19950;-83
2022/02/17 12:36:35;;;;;;;;;;;;;;;14.25;45.59;100740.44;5122480;27;19916;-83
2022/02/17 12:39:04;;;;;;;;;;;;;;;14.63;45.17;100734.34;5140491;27;19926;-83